West Lafayette, Ohio
Current Conditions -  °F | °C
As of 11:53 AM on Tuesday 27 Jan 2015 (Local Time) from KPHD Reporting Station
Light Snow Light Snow  
Wind Chill: -11°   Ceiling: 2700
Heat Index: -6°   Visibility: 4mi
Dew Point: -11°   Wind: 9mph
Humidity: 68%   Direction: 320°NW
Pressure: 30.02"   Gusts: NA
Location:  40.28°N, 81.75°W
Report Text: KPHD 271653Z AUTO 32008KT 4SM -SN OVC027 M06/M11 A3002 RMK AO2 SNB46 SLP179 P0000 T10561106
Loading
Personal Weather Stations






























Interactive Weather Map New forecast layout! Learn more

10-Day Weather Forecast

Advertisements
Track Severe Weather on mobile